DAL1944 KATL-MYNN
Flight info
| Callsign | DAL1944 |
|---|---|
| Flight time | 1h 36m |
| Altitude | 35000 |
| Route | VRSTY3 NOKIE DCT YANTI Q89 SHRKS DCT DEBRL Q97 MALET DCT TRV DCT ZFP BR63V MELON |
| Aircraft | A321/M-SDE3FGHIRWY/LB1 |
Departure
| Time | 2026-05-04 20:27 |
|---|---|
| Airport | Hartsfield Jackson Atlanta International Airport (KATL) |
Arrival
| Time | 2026-05-04 22:03 |
|---|---|
| Airport | Lynden Pindling International Airport (MYNN) |
| Time | Latitude | Longitude | Altitude | Speed | Heading |
|---|---|---|---|---|---|
| 2026-05-04 19:43 | 33.64340 | -84.42993 | 1034 ft | 0 kts | 99° |
| 2026-05-04 19:56 | 33.64340 | -84.42994 | 1007 ft | 0 kts | 99° |
| 2026-05-04 20:14 | 33.64341 | -84.42998 | 1034 ft | 3 kts | 94° |
| 2026-05-04 20:15 | 33.64345 | -84.43005 | 1006 ft | 4 kts | 54° |
| 2026-05-04 20:15 | 33.64344 | -84.43022 | 1006 ft | 4 kts | 83° |
| 2026-05-04 20:15 | 33.64336 | -84.43050 | 1006 ft | 4 kts | 44° |
| 2026-05-04 20:15 | 33.64315 | -84.43064 | 1006 ft | 3 kts | 1° |
| 2026-05-04 20:16 | 33.64308 | -84.43064 | 1006 ft | 0 kts | 360° |
| 2026-05-04 20:18 | 33.64311 | -84.43064 | 1006 ft | 3 kts | 360° |
| 2026-05-04 20:18 | 33.64352 | -84.43064 | 1006 ft | 8 kts | 0° |
| 2026-05-04 20:18 | 33.64422 | -84.43070 | 1006 ft | 10 kts | 341° |
| 2026-05-04 20:18 | 33.64483 | -84.43097 | 1007 ft | 8 kts | 353° |
| 2026-05-04 20:19 | 33.64529 | -84.43077 | 1007 ft | 7 kts | 49° |
| 2026-05-04 20:19 | 33.64541 | -84.43024 | 1007 ft | 7 kts | 86° |
| 2026-05-04 20:19 | 33.64542 | -84.42948 | 1007 ft | 11 kts | 90° |
| 2026-05-04 20:19 | 33.64542 | -84.42830 | 1006 ft | 17 kts | 90° |
| 2026-05-04 20:20 | 33.64542 | -84.42668 | 1006 ft | 22 kts | 90° |
| 2026-05-04 20:20 | 33.64543 | -84.42469 | 1006 ft | 26 kts | 89° |
| 2026-05-04 20:20 | 33.64542 | -84.42288 | 1006 ft | 20 kts | 90° |
| 2026-05-04 20:20 | 33.64542 | -84.42137 | 1006 ft | 17 kts | 90° |
| 2026-05-04 20:21 | 33.64542 | -84.42000 | 1006 ft | 16 kts | 90° |
| 2026-05-04 20:21 | 33.64542 | -84.41875 | 1006 ft | 14 kts | 90° |
| 2026-05-04 20:21 | 33.64542 | -84.41668 | 1007 ft | 10 kts | 90° |
| 2026-05-04 20:22 | 33.64543 | -84.41569 | 1007 ft | 16 kts | 90° |
| 2026-05-04 20:22 | 33.64543 | -84.41411 | 1007 ft | 19 kts | 90° |
| 2026-05-04 20:22 | 33.64542 | -84.41262 | 1007 ft | 17 kts | 90° |
| 2026-05-04 20:22 | 33.64542 | -84.41126 | 1007 ft | 16 kts | 90° |
| 2026-05-04 20:23 | 33.64542 | -84.41000 | 1006 ft | 14 kts | 90° |
| 2026-05-04 20:23 | 33.64542 | -84.40884 | 1006 ft | 13 kts | 90° |
| 2026-05-04 20:23 | 33.64561 | -84.40787 | 1006 ft | 11 kts | 69° |
| 2026-05-04 20:23 | 33.64569 | -84.40702 | 1006 ft | 10 kts | 88° |
| 2026-05-04 20:24 | 33.64570 | -84.40625 | 1005 ft | 8 kts | 90° |
| 2026-05-04 20:24 | 33.64583 | -84.40572 | 1005 ft | 4 kts | 33° |
| 2026-05-04 20:24 | 33.64589 | -84.40570 | 1005 ft | 0 kts | 14° |
| 2026-05-04 20:24 | 33.64591 | -84.40570 | 1005 ft | 3 kts | 9° |
| 2026-05-04 20:25 | 33.64641 | -84.40571 | 1004 ft | 9 kts | 353° |
| 2026-05-04 20:25 | 33.64679 | -84.40629 | 1004 ft | 6 kts | 265° |
| 2026-05-04 20:25 | 33.64679 | -84.40633 | 1004 ft | 0 kts | 268° |
| 2026-05-04 20:26 | 33.64679 | -84.40652 | 1004 ft | 18 kts | 268° |
| 2026-05-04 20:26 | 33.64679 | -84.41099 | 1007 ft | 86 kts | 270° |
| 2026-05-04 20:26 | 33.64679 | -84.42043 | 1005 ft | 138 kts | 270° |
| 2026-05-04 20:27 | 33.64680 | -84.43364 | 1023 ft | 176 kts | 270° |
| 2026-05-04 20:27 | 33.64701 | -84.44775 | 1748 ft | 164 kts | 269° |
| 2026-05-04 20:27 | 33.64779 | -84.46153 | 2339 ft | 167 kts | 279° |
| 2026-05-04 20:27 | 33.65032 | -84.47529 | 2880 ft | 173 kts | 281° |
| 2026-05-04 20:28 | 33.65303 | -84.49011 | 3097 ft | 191 kts | 281° |
| 2026-05-04 20:28 | 33.65601 | -84.50659 | 3254 ft | 214 kts | 280° |
| 2026-05-04 20:28 | 33.65935 | -84.52497 | 3431 ft | 237 kts | 281° |
| 2026-05-04 20:28 | 33.66307 | -84.54528 | 3708 ft | 258 kts | 281° |
| 2026-05-04 20:29 | 33.66692 | -84.56670 | 4324 ft | 265 kts | 278° |
| 2026-05-04 20:29 | 33.66631 | -84.58863 | 5007 ft | 266 kts | 251° |
| 2026-05-04 20:29 | 33.65820 | -84.60849 | 5718 ft | 266 kts | 239° |
| 2026-05-04 20:29 | 33.64895 | -84.62773 | 6471 ft | 268 kts | 238° |
| 2026-05-04 20:30 | 33.63941 | -84.64711 | 7155 ft | 270 kts | 234° |
| 2026-05-04 20:30 | 33.62634 | -84.66320 | 7794 ft | 272 kts | 213° |
| 2026-05-04 20:30 | 33.61002 | -84.67475 | 8493 ft | 273 kts | 209° |
| 2026-05-04 20:30 | 33.59337 | -84.68586 | 9229 ft | 274 kts | 204° |
| 2026-05-04 20:31 | 33.57516 | -84.69282 | 9914 ft | 277 kts | 189° |
| 2026-05-04 20:31 | 33.55582 | -84.69356 | 10484 ft | 282 kts | 174° |
| 2026-05-04 20:31 | 33.53627 | -84.68986 | 11055 ft | 287 kts | 172° |
| 2026-05-04 20:31 | 33.51640 | -84.68603 | 11631 ft | 291 kts | 173° |
| 2026-05-04 20:32 | 33.49625 | -84.68220 | 12217 ft | 295 kts | 173° |
| 2026-05-04 20:32 | 33.47578 | -84.67836 | 12803 ft | 299 kts | 173° |
| 2026-05-04 20:32 | 33.45508 | -84.67444 | 13375 ft | 304 kts | 171° |
| 2026-05-04 20:32 | 33.43478 | -84.66660 | 13918 ft | 311 kts | 155° |
| 2026-05-04 20:33 | 33.41655 | -84.65192 | 14307 ft | 324 kts | 139° |
| 2026-05-04 20:33 | 33.40178 | -84.63047 | 14426 ft | 345 kts | 122° |
| 2026-05-04 20:33 | 33.38955 | -84.60486 | 14549 ft | 364 kts | 121° |
| 2026-05-04 20:33 | 33.37676 | -84.57807 | 14748 ft | 377 kts | 121° |
| 2026-05-04 20:34 | 33.36360 | -84.55059 | 15217 ft | 383 kts | 121° |
| 2026-05-04 20:34 | 33.35030 | -84.52288 | 15730 ft | 386 kts | 121° |
| 2026-05-04 20:34 | 33.33685 | -84.49493 | 16251 ft | 389 kts | 122° |
| 2026-05-04 20:34 | 33.32327 | -84.46677 | 16762 ft | 393 kts | 122° |
| 2026-05-04 20:35 | 33.30954 | -84.43837 | 17287 ft | 396 kts | 122° |
| 2026-05-04 20:35 | 33.29573 | -84.40979 | 17779 ft | 399 kts | 122° |
| 2026-05-04 20:35 | 33.28177 | -84.38097 | 18278 ft | 402 kts | 122° |
| 2026-05-04 20:35 | 33.26769 | -84.35191 | 18733 ft | 406 kts | 122° |
| 2026-05-04 20:36 | 33.25366 | -84.32299 | 19144 ft | 409 kts | 122° |
| 2026-05-04 20:36 | 33.23916 | -84.29309 | 19538 ft | 413 kts | 122° |
| 2026-05-04 20:36 | 33.22471 | -84.26331 | 19925 ft | 416 kts | 122° |
| 2026-05-04 20:36 | 33.21011 | -84.23330 | 20304 ft | 420 kts | 122° |
| 2026-05-04 20:37 | 33.19537 | -84.20302 | 20697 ft | 423 kts | 122° |
| 2026-05-04 20:37 | 33.18053 | -84.17255 | 21093 ft | 426 kts | 122° |
| 2026-05-04 20:37 | 33.16580 | -84.14229 | 21474 ft | 429 kts | 122° |
| 2026-05-04 20:37 | 33.15077 | -84.11136 | 21850 ft | 433 kts | 122° |
| 2026-05-04 20:38 | 33.13564 | -84.08019 | 22234 ft | 436 kts | 122° |
| 2026-05-04 20:38 | 33.12037 | -84.04878 | 22596 ft | 439 kts | 122° |
| 2026-05-04 20:38 | 33.10494 | -84.01718 | 22973 ft | 442 kts | 123° |
| 2026-05-04 20:38 | 33.08734 | -83.98718 | 23325 ft | 442 kts | 133° |
| 2026-05-04 20:39 | 33.06592 | -83.96101 | 23678 ft | 440 kts | 143° |
| 2026-05-04 20:39 | 33.04151 | -83.93911 | 23984 ft | 440 kts | 149° |
| 2026-05-04 20:39 | 33.01630 | -83.91821 | 24300 ft | 443 kts | 149° |
| 2026-05-04 20:39 | 32.99102 | -83.89713 | 24607 ft | 445 kts | 149° |
| 2026-05-04 20:40 | 32.96562 | -83.87587 | 24925 ft | 447 kts | 149° |
| 2026-05-04 20:40 | 32.94015 | -83.85452 | 25237 ft | 449 kts | 149° |
| 2026-05-04 20:40 | 32.91452 | -83.83300 | 25541 ft | 452 kts | 149° |
| 2026-05-04 20:40 | 32.88877 | -83.81135 | 25844 ft | 454 kts | 149° |
| 2026-05-04 20:41 | 32.86286 | -83.78966 | 26135 ft | 457 kts | 149° |
| 2026-05-04 20:41 | 32.83678 | -83.76795 | 26425 ft | 459 kts | 149° |
| 2026-05-04 20:41 | 32.81052 | -83.74616 | 26719 ft | 461 kts | 149° |
| 2026-05-04 20:41 | 32.78414 | -83.72430 | 27003 ft | 464 kts | 149° |
| 2026-05-04 20:42 | 32.75762 | -83.70230 | 27286 ft | 466 kts | 149° |
| 2026-05-04 20:42 | 32.73097 | -83.68019 | 27565 ft | 468 kts | 149° |
| 2026-05-04 20:42 | 32.70419 | -83.65796 | 27813 ft | 471 kts | 149° |
| 2026-05-04 20:42 | 32.67739 | -83.63559 | 28079 ft | 473 kts | 149° |
| 2026-05-04 20:43 | 32.65065 | -83.61254 | 28329 ft | 476 kts | 148° |
| 2026-05-04 20:43 | 32.62403 | -83.58893 | 28573 ft | 479 kts | 147° |
| 2026-05-04 20:43 | 32.59746 | -83.56501 | 28831 ft | 481 kts | 147° |
| 2026-05-04 20:43 | 32.57078 | -83.54096 | 29075 ft | 483 kts | 147° |
| 2026-05-04 20:44 | 32.54392 | -83.51693 | 29315 ft | 485 kts | 148° |
| 2026-05-04 20:44 | 32.51686 | -83.49295 | 29553 ft | 487 kts | 148° |
| 2026-05-04 20:44 | 32.48961 | -83.46898 | 29789 ft | 489 kts | 148° |
| 2026-05-04 20:44 | 32.46223 | -83.44498 | 30029 ft | 491 kts | 148° |
| 2026-05-04 20:45 | 32.43471 | -83.42088 | 30231 ft | 493 kts | 148° |
| 2026-05-04 20:45 | 32.40719 | -83.39676 | 30515 ft | 493 kts | 148° |
| 2026-05-04 20:45 | 32.37969 | -83.37262 | 30826 ft | 492 kts | 148° |
| 2026-05-04 20:45 | 32.35225 | -83.34853 | 31139 ft | 491 kts | 148° |
| 2026-05-04 20:46 | 32.32484 | -83.32450 | 31452 ft | 490 kts | 148° |
| 2026-05-04 20:46 | 32.29747 | -83.30053 | 31776 ft | 489 kts | 148° |
| 2026-05-04 20:46 | 32.27013 | -83.27663 | 32088 ft | 488 kts | 148° |
| 2026-05-04 20:46 | 32.24282 | -83.25275 | 32410 ft | 488 kts | 148° |
| 2026-05-04 20:47 | 32.21557 | -83.22891 | 32731 ft | 487 kts | 148° |
| 2026-05-04 20:47 | 32.18836 | -83.20514 | 33052 ft | 486 kts | 148° |
| 2026-05-04 20:47 | 32.16120 | -83.18147 | 33327 ft | 485 kts | 149° |
| 2026-05-04 20:47 | 32.13395 | -83.15778 | 33493 ft | 488 kts | 150° |
| 2026-05-04 20:48 | 32.10656 | -83.13401 | 33727 ft | 488 kts | 150° |
| 2026-05-04 20:48 | 32.07924 | -83.11025 | 34023 ft | 488 kts | 150° |
| 2026-05-04 20:48 | 32.05196 | -83.08647 | 34267 ft | 488 kts | 150° |
| 2026-05-04 20:48 | 32.02464 | -83.06265 | 34490 ft | 488 kts | 150° |
| 2026-05-04 20:49 | 31.99771 | -83.03918 | 34700 ft | 488 kts | 150° |
| 2026-05-04 20:49 | 31.97041 | -83.01543 | 34911 ft | 488 kts | 150° |
| 2026-05-04 20:49 | 31.94269 | -82.99138 | 35047 ft | 489 kts | 150° |
| 2026-05-04 20:49 | 31.91534 | -82.96771 | 35081 ft | 486 kts | 150° |
| 2026-05-04 20:50 | 31.86129 | -82.92094 | 35056 ft | 486 kts | 151° |
| 2026-05-04 20:50 | 31.80619 | -82.87347 | 35076 ft | 488 kts | 151° |
| 2026-05-04 20:51 | 31.75190 | -82.82521 | 35078 ft | 491 kts | 148° |
| 2026-05-04 20:51 | 31.69892 | -82.77429 | 35069 ft | 492 kts | 147° |
| 2026-05-04 20:52 | 31.64624 | -82.72293 | 35077 ft | 492 kts | 148° |
| 2026-05-04 20:52 | 31.59323 | -82.67229 | 35086 ft | 491 kts | 148° |
| 2026-05-04 20:53 | 31.53994 | -82.62217 | 35054 ft | 491 kts | 148° |
| 2026-05-04 20:53 | 31.48660 | -82.57200 | 35069 ft | 492 kts | 148° |
| 2026-05-04 20:54 | 31.43455 | -82.52279 | 35089 ft | 492 kts | 148° |
| 2026-05-04 20:54 | 31.38046 | -82.47177 | 35080 ft | 492 kts | 148° |
| 2026-05-04 20:55 | 31.32707 | -82.42169 | 35081 ft | 492 kts | 148° |
| 2026-05-04 20:55 | 31.27377 | -82.37161 | 35045 ft | 491 kts | 148° |
| 2026-05-04 20:56 | 31.22054 | -82.32164 | 35064 ft | 490 kts | 148° |
| 2026-05-04 20:56 | 31.16735 | -82.27179 | 35074 ft | 490 kts | 148° |
| 2026-05-04 20:57 | 31.11418 | -82.22199 | 35084 ft | 490 kts | 148° |
| 2026-05-04 20:57 | 31.06096 | -82.17239 | 35088 ft | 489 kts | 149° |
| 2026-05-04 20:58 | 31.00776 | -82.12288 | 35087 ft | 489 kts | 149° |
| 2026-05-04 20:58 | 30.96322 | -82.08140 | 35066 ft | 489 kts | 148° |
| 2026-05-04 20:59 | 30.91012 | -82.03194 | 35068 ft | 489 kts | 148° |
| 2026-05-04 20:59 | 30.85701 | -81.98259 | 35070 ft | 489 kts | 148° |
| 2026-05-04 21:00 | 30.80377 | -81.93329 | 35090 ft | 489 kts | 149° |
| 2026-05-04 21:00 | 30.75052 | -81.88403 | 35099 ft | 489 kts | 148° |
| 2026-05-04 21:01 | 30.69728 | -81.83484 | 35064 ft | 489 kts | 148° |
| 2026-05-04 21:01 | 30.64392 | -81.78583 | 35078 ft | 487 kts | 151° |
| 2026-05-04 21:02 | 30.58602 | -81.74839 | 35077 ft | 470 kts | 166° |
| 2026-05-04 21:02 | 30.52594 | -81.71954 | 35080 ft | 471 kts | 166° |
| 2026-05-04 21:03 | 30.46542 | -81.69030 | 35085 ft | 471 kts | 165° |
| 2026-05-04 21:03 | 30.40490 | -81.66108 | 35089 ft | 471 kts | 166° |
| 2026-05-04 21:04 | 30.34441 | -81.63202 | 35100 ft | 470 kts | 166° |
| 2026-05-04 21:04 | 30.28401 | -81.60294 | 35110 ft | 470 kts | 166° |
| 2026-05-04 21:05 | 30.22324 | -81.57380 | 35100 ft | 470 kts | 166° |
| 2026-05-04 21:05 | 30.16325 | -81.54510 | 35112 ft | 470 kts | 166° |
| 2026-05-04 21:06 | 30.10295 | -81.51626 | 35071 ft | 469 kts | 165° |
| 2026-05-04 21:06 | 30.04265 | -81.48739 | 35087 ft | 469 kts | 165° |
| 2026-05-04 21:07 | 29.98236 | -81.45855 | 35100 ft | 469 kts | 165° |
| 2026-05-04 21:07 | 29.92196 | -81.42983 | 35107 ft | 469 kts | 165° |
| 2026-05-04 21:08 | 29.86152 | -81.40115 | 35112 ft | 470 kts | 165° |
| 2026-05-04 21:08 | 29.80113 | -81.37241 | 35096 ft | 470 kts | 165° |
| 2026-05-04 21:09 | 29.74076 | -81.34366 | 35109 ft | 469 kts | 165° |
| 2026-05-04 21:09 | 29.68044 | -81.31509 | 35116 ft | 469 kts | 165° |
| 2026-05-04 21:10 | 29.62013 | -81.28654 | 35116 ft | 468 kts | 165° |
| 2026-05-04 21:10 | 29.55992 | -81.25809 | 35127 ft | 467 kts | 165° |
| 2026-05-04 21:11 | 29.49985 | -81.22974 | 35088 ft | 466 kts | 165° |
| 2026-05-04 21:11 | 29.43998 | -81.20152 | 35106 ft | 465 kts | 165° |
| 2026-05-04 21:12 | 29.38019 | -81.17338 | 35106 ft | 464 kts | 165° |
| 2026-05-04 21:12 | 29.32052 | -81.14527 | 35096 ft | 464 kts | 165° |
| 2026-05-04 21:13 | 29.26075 | -81.11752 | 35097 ft | 463 kts | 166° |
| 2026-05-04 21:13 | 29.20075 | -81.09113 | 35079 ft | 461 kts | 167° |
| 2026-05-04 21:14 | 29.14080 | -81.06507 | 35088 ft | 461 kts | 167° |
| 2026-05-04 21:14 | 29.08094 | -81.03882 | 35089 ft | 460 kts | 167° |
| 2026-05-04 21:15 | 29.02115 | -81.01244 | 35090 ft | 461 kts | 167° |
| 2026-05-04 21:15 | 28.96177 | -80.98628 | 35091 ft | 461 kts | 167° |
| 2026-05-04 21:16 | 28.90156 | -80.95990 | 35077 ft | 460 kts | 167° |
| 2026-05-04 21:16 | 28.84213 | -80.93385 | 35092 ft | 461 kts | 167° |
| 2026-05-04 21:17 | 28.78234 | -80.90754 | 35062 ft | 461 kts | 167° |
| 2026-05-04 21:17 | 28.72265 | -80.88132 | 35081 ft | 459 kts | 167° |
| 2026-05-04 21:18 | 28.66299 | -80.85587 | 35081 ft | 456 kts | 169° |
| 2026-05-04 21:18 | 28.60294 | -80.83331 | 35090 ft | 453 kts | 171° |
| 2026-05-04 21:19 | 28.54288 | -80.81172 | 35094 ft | 452 kts | 171° |
| 2026-05-04 21:19 | 28.48306 | -80.78971 | 35100 ft | 452 kts | 170° |
| 2026-05-04 21:20 | 28.42328 | -80.76718 | 35100 ft | 452 kts | 170° |
| 2026-05-04 21:20 | 28.36361 | -80.74460 | 35095 ft | 452 kts | 170° |
| 2026-05-04 21:21 | 28.30394 | -80.72220 | 35069 ft | 451 kts | 170° |
| 2026-05-04 21:21 | 28.24437 | -80.69997 | 35073 ft | 450 kts | 170° |
| 2026-05-04 21:22 | 28.18492 | -80.67778 | 35074 ft | 450 kts | 170° |
| 2026-05-04 21:22 | 28.12549 | -80.65561 | 35072 ft | 449 kts | 170° |
| 2026-05-04 21:23 | 28.06614 | -80.63352 | 35067 ft | 449 kts | 170° |
| 2026-05-04 21:23 | 28.00673 | -80.61142 | 35039 ft | 449 kts | 171° |
| 2026-05-04 21:24 | 27.94739 | -80.58940 | 35056 ft | 449 kts | 171° |
| 2026-05-04 21:24 | 27.88814 | -80.56742 | 35062 ft | 448 kts | 171° |
| 2026-05-04 21:25 | 27.82887 | -80.54541 | 35066 ft | 448 kts | 171° |
| 2026-05-04 21:25 | 27.76958 | -80.52347 | 35057 ft | 448 kts | 171° |
| 2026-05-04 21:26 | 27.71089 | -80.49879 | 35031 ft | 459 kts | 160° |
| 2026-05-04 21:26 | 27.68363 | -80.47937 | 35033 ft | 470 kts | 150° |
| 2026-05-04 21:26 | 27.65905 | -80.45443 | 35039 ft | 481 kts | 139° |
| 2026-05-04 21:27 | 27.61882 | -80.39299 | 35042 ft | 490 kts | 131° |
| 2026-05-04 21:27 | 27.58002 | -80.32979 | 35036 ft | 490 kts | 131° |
| 2026-05-04 21:28 | 27.54110 | -80.26663 | 35042 ft | 491 kts | 131° |
| 2026-05-04 21:28 | 27.50213 | -80.20353 | 35045 ft | 491 kts | 131° |
| 2026-05-04 21:29 | 27.46307 | -80.14054 | 35034 ft | 491 kts | 131° |
| 2026-05-04 21:29 | 27.42398 | -80.07750 | 35032 ft | 491 kts | 131° |
| 2026-05-04 21:30 | 27.38490 | -80.01446 | 35031 ft | 491 kts | 131° |
| 2026-05-04 21:30 | 27.34576 | -79.95142 | 35030 ft | 491 kts | 131° |
| 2026-05-04 21:31 | 27.28728 | -79.85743 | 35033 ft | 491 kts | 131° |
| 2026-05-04 21:32 | 27.24809 | -79.79455 | 35022 ft | 491 kts | 131° |
| 2026-05-04 21:32 | 27.20887 | -79.73166 | 35018 ft | 491 kts | 131° |
| 2026-05-04 21:33 | 27.16953 | -79.66879 | 35021 ft | 492 kts | 131° |
| 2026-05-04 21:33 | 27.13019 | -79.60601 | 35021 ft | 492 kts | 131° |
| 2026-05-04 21:34 | 27.09083 | -79.54315 | 35024 ft | 492 kts | 131° |
| 2026-05-04 21:34 | 27.05136 | -79.48034 | 34997 ft | 492 kts | 131° |
| 2026-05-04 21:35 | 27.01183 | -79.41761 | 35000 ft | 493 kts | 131° |
| 2026-05-04 21:35 | 26.97230 | -79.35479 | 35006 ft | 493 kts | 131° |
| 2026-05-04 21:36 | 26.93273 | -79.29196 | 35016 ft | 493 kts | 131° |
| 2026-05-04 21:36 | 26.89310 | -79.22912 | 35014 ft | 494 kts | 131° |
| 2026-05-04 21:37 | 26.85341 | -79.16636 | 35022 ft | 494 kts | 131° |
| 2026-05-04 21:37 | 26.81365 | -79.10368 | 35026 ft | 494 kts | 131° |
| 2026-05-04 21:38 | 26.77392 | -79.04102 | 35017 ft | 493 kts | 131° |
| 2026-05-04 21:38 | 26.73421 | -78.97852 | 34998 ft | 493 kts | 131° |
| 2026-05-04 21:39 | 26.69453 | -78.91609 | 35013 ft | 492 kts | 131° |
| 2026-05-04 21:39 | 26.65488 | -78.85378 | 34715 ft | 491 kts | 131° |
| 2026-05-04 21:39 | 26.63508 | -78.82269 | 34482 ft | 491 kts | 131° |
| 2026-05-04 21:40 | 26.61523 | -78.79159 | 34246 ft | 492 kts | 131° |
| 2026-05-04 21:40 | 26.59534 | -78.76043 | 34014 ft | 493 kts | 131° |
| 2026-05-04 21:40 | 26.57545 | -78.72927 | 33759 ft | 493 kts | 131° |
| 2026-05-04 21:40 | 26.55573 | -78.69843 | 33498 ft | 494 kts | 131° |
| 2026-05-04 21:41 | 26.53532 | -78.66765 | 33228 ft | 493 kts | 133° |
| 2026-05-04 21:41 | 26.51431 | -78.63756 | 32977 ft | 490 kts | 134° |
| 2026-05-04 21:41 | 26.49305 | -78.60809 | 32564 ft | 485 kts | 135° |
| 2026-05-04 21:41 | 26.47174 | -78.57900 | 32025 ft | 483 kts | 135° |
| 2026-05-04 21:42 | 26.45057 | -78.55003 | 31494 ft | 480 kts | 135° |
| 2026-05-04 21:42 | 26.42962 | -78.52107 | 30970 ft | 478 kts | 134° |
| 2026-05-04 21:42 | 26.40890 | -78.49214 | 30453 ft | 477 kts | 134° |
| 2026-05-04 21:42 | 26.38833 | -78.46321 | 29903 ft | 474 kts | 133° |
| 2026-05-04 21:43 | 26.36799 | -78.43449 | 29383 ft | 470 kts | 133° |
| 2026-05-04 21:43 | 26.34783 | -78.40600 | 28876 ft | 466 kts | 133° |
| 2026-05-04 21:43 | 26.32784 | -78.37780 | 28381 ft | 462 kts | 134° |
| 2026-05-04 21:43 | 26.30798 | -78.34988 | 27882 ft | 458 kts | 134° |
| 2026-05-04 21:44 | 26.29492 | -78.33157 | 27577 ft | 455 kts | 134° |
| 2026-05-04 21:44 | 26.27523 | -78.30402 | 27099 ft | 451 kts | 134° |
| 2026-05-04 21:44 | 26.25576 | -78.27682 | 26631 ft | 447 kts | 134° |
| 2026-05-04 21:44 | 26.23643 | -78.24985 | 26173 ft | 443 kts | 134° |
| 2026-05-04 21:45 | 26.21728 | -78.22311 | 25733 ft | 439 kts | 134° |
| 2026-05-04 21:45 | 26.19836 | -78.19666 | 25300 ft | 435 kts | 134° |
| 2026-05-04 21:45 | 26.17961 | -78.17043 | 24865 ft | 431 kts | 134° |
| 2026-05-04 21:45 | 26.16101 | -78.14441 | 24448 ft | 427 kts | 134° |
| 2026-05-04 21:46 | 26.14256 | -78.11866 | 24020 ft | 424 kts | 134° |
| 2026-05-04 21:46 | 26.12423 | -78.09315 | 23584 ft | 421 kts | 134° |
| 2026-05-04 21:46 | 26.10600 | -78.06784 | 23109 ft | 417 kts | 134° |
| 2026-05-04 21:46 | 26.08800 | -78.04281 | 22687 ft | 412 kts | 134° |
| 2026-05-04 21:47 | 26.07025 | -78.01806 | 22268 ft | 408 kts | 134° |
| 2026-05-04 21:47 | 26.05265 | -77.99349 | 21821 ft | 404 kts | 134° |
| 2026-05-04 21:47 | 26.03520 | -77.96919 | 21412 ft | 400 kts | 134° |
| 2026-05-04 21:47 | 26.01791 | -77.94521 | 20982 ft | 397 kts | 134° |
| 2026-05-04 21:48 | 26.00066 | -77.92132 | 20553 ft | 394 kts | 134° |
| 2026-05-04 21:48 | 25.98352 | -77.89761 | 20118 ft | 392 kts | 134° |
| 2026-05-04 21:48 | 25.96648 | -77.87402 | 19693 ft | 391 kts | 134° |
| 2026-05-04 21:48 | 25.94951 | -77.85055 | 19260 ft | 389 kts | 134° |
| 2026-05-04 21:49 | 25.93257 | -77.82713 | 18829 ft | 388 kts | 133° |
| 2026-05-04 21:49 | 25.91573 | -77.80383 | 18400 ft | 387 kts | 133° |
| 2026-05-04 21:49 | 25.89893 | -77.78056 | 17929 ft | 385 kts | 133° |
| 2026-05-04 21:49 | 25.88224 | -77.75740 | 17489 ft | 383 kts | 133° |
| 2026-05-04 21:50 | 25.86564 | -77.73443 | 17073 ft | 380 kts | 133° |
| 2026-05-04 21:50 | 25.84919 | -77.71169 | 16657 ft | 378 kts | 133° |
| 2026-05-04 21:50 | 25.83275 | -77.68896 | 16244 ft | 375 kts | 133° |
| 2026-05-04 21:50 | 25.81641 | -77.66639 | 15781 ft | 375 kts | 133° |
| 2026-05-04 21:51 | 25.80012 | -77.64394 | 15359 ft | 373 kts | 134° |
| 2026-05-04 21:51 | 25.78384 | -77.62153 | 14943 ft | 372 kts | 134° |
| 2026-05-04 21:51 | 25.76766 | -77.59926 | 14525 ft | 371 kts | 134° |
| 2026-05-04 21:51 | 25.75150 | -77.57701 | 14104 ft | 370 kts | 133° |
| 2026-05-04 21:52 | 25.73541 | -77.55484 | 13673 ft | 369 kts | 133° |
| 2026-05-04 21:52 | 25.71934 | -77.53268 | 13197 ft | 367 kts | 133° |
| 2026-05-04 21:52 | 25.70209 | -77.51224 | 12780 ft | 359 kts | 145° |
| 2026-05-04 21:52 | 25.68172 | -77.49705 | 12358 ft | 349 kts | 159° |
| 2026-05-04 21:53 | 25.65944 | -77.48765 | 11939 ft | 339 kts | 172° |
| 2026-05-04 21:53 | 25.63646 | -77.48396 | 11529 ft | 330 kts | 182° |
| 2026-05-04 21:53 | 25.61353 | -77.48266 | 11125 ft | 328 kts | 182° |
| 2026-05-04 21:53 | 25.59078 | -77.48129 | 10710 ft | 327 kts | 181° |
| 2026-05-04 21:54 | 25.56839 | -77.47989 | 10304 ft | 326 kts | 181° |
| 2026-05-04 21:54 | 25.54572 | -77.47842 | 10112 ft | 317 kts | 181° |
| 2026-05-04 21:54 | 25.52453 | -77.47855 | 9990 ft | 301 kts | 192° |
| 2026-05-04 21:54 | 25.50435 | -77.48372 | 9717 ft | 290 kts | 204° |
| 2026-05-04 21:55 | 25.48605 | -77.49218 | 9304 ft | 288 kts | 207° |
| 2026-05-04 21:55 | 25.46765 | -77.50084 | 8871 ft | 288 kts | 206° |
| 2026-05-04 21:55 | 25.44933 | -77.50938 | 8470 ft | 287 kts | 206° |
| 2026-05-04 21:55 | 25.43099 | -77.51791 | 8135 ft | 283 kts | 206° |
| 2026-05-04 21:56 | 25.41306 | -77.52619 | 7532 ft | 278 kts | 205° |
| 2026-05-04 21:56 | 25.39513 | -77.53447 | 7097 ft | 275 kts | 205° |
| 2026-05-04 21:56 | 25.37749 | -77.54263 | 6681 ft | 274 kts | 205° |
| 2026-05-04 21:56 | 25.36018 | -77.55065 | 6254 ft | 272 kts | 205° |
| 2026-05-04 21:57 | 25.34277 | -77.55870 | 5824 ft | 271 kts | 205° |
| 2026-05-04 21:57 | 25.32536 | -77.56678 | 5417 ft | 272 kts | 205° |
| 2026-05-04 21:57 | 25.30787 | -77.57488 | 5005 ft | 273 kts | 205° |
| 2026-05-04 21:57 | 25.29036 | -77.58299 | 4584 ft | 273 kts | 205° |
| 2026-05-04 21:58 | 25.27295 | -77.59104 | 4188 ft | 272 kts | 205° |
| 2026-05-04 21:58 | 25.25568 | -77.59900 | 3953 ft | 264 kts | 204° |
| 2026-05-04 21:58 | 25.23905 | -77.60666 | 3827 ft | 254 kts | 204° |
| 2026-05-04 21:58 | 25.22310 | -77.61402 | 3704 ft | 244 kts | 205° |
| 2026-05-04 21:59 | 25.20708 | -77.61928 | 3583 ft | 240 kts | 188° |
| 2026-05-04 21:59 | 25.19088 | -77.61841 | 3506 ft | 228 kts | 169° |
| 2026-05-04 21:59 | 25.17634 | -77.61204 | 3328 ft | 225 kts | 149° |
| 2026-05-04 21:59 | 25.16443 | -77.60103 | 3071 ft | 224 kts | 135° |
| 2026-05-04 22:00 | 25.15349 | -77.58882 | 2786 ft | 224 kts | 135° |
| 2026-05-04 22:00 | 25.14257 | -77.57662 | 2493 ft | 223 kts | 135° |
| 2026-05-04 22:00 | 25.13171 | -77.56452 | 2212 ft | 220 kts | 135° |
| 2026-05-04 22:00 | 25.12106 | -77.55267 | 1943 ft | 212 kts | 135° |
| 2026-05-04 22:01 | 25.11109 | -77.54157 | 1668 ft | 196 kts | 135° |
| 2026-05-04 22:01 | 25.10180 | -77.53123 | 1423 ft | 184 kts | 135° |
| 2026-05-04 22:01 | 25.09308 | -77.52153 | 1200 ft | 171 kts | 136° |
| 2026-05-04 22:01 | 25.08499 | -77.51254 | 986 ft | 161 kts | 136° |
| 2026-05-04 22:02 | 25.07724 | -77.50392 | 778 ft | 155 kts | 134° |
| 2026-05-04 22:02 | 25.06975 | -77.49577 | 566 ft | 148 kts | 134° |
| 2026-05-04 22:02 | 25.06273 | -77.48783 | 382 ft | 142 kts | 131° |
| 2026-05-04 22:02 | 25.05589 | -77.48011 | 162 ft | 141 kts | 134° |
| 2026-05-04 22:03 | 25.04899 | -77.47249 | 26 ft | 138 kts | 132° |
| 2026-05-04 22:03 | 25.04313 | -77.46598 | 11 ft | 93 kts | 135° |
| 2026-05-04 22:03 | 25.03982 | -77.46231 | 13 ft | 43 kts | 135° |
| 2026-05-04 22:03 | 25.03812 | -77.46046 | 15 ft | 20 kts | 134° |
| 2026-05-04 22:04 | 25.03769 | -77.45943 | 13 ft | 14 kts | 69° |
| 2026-05-04 22:04 | 25.03825 | -77.45872 | 12 ft | 10 kts | 42° |
| 2026-05-04 22:04 | 25.03884 | -77.45871 | 12 ft | 9 kts | 324° |
| 2026-05-04 22:04 | 25.03924 | -77.45911 | 12 ft | 8 kts | 317° |
| 2026-05-04 22:05 | 25.03985 | -77.45975 | 13 ft | 15 kts | 315° |
| 2026-05-04 22:05 | 25.04057 | -77.46054 | 12 ft | 14 kts | 315° |
| 2026-05-04 22:05 | 25.04122 | -77.46127 | 12 ft | 13 kts | 314° |
| 2026-05-04 22:05 | 25.04181 | -77.46193 | 12 ft | 11 kts | 314° |
| 2026-05-04 22:06 | 25.04232 | -77.46249 | 11 ft | 10 kts | 315° |
| 2026-05-04 22:06 | 25.04277 | -77.46298 | 11 ft | 8 kts | 315° |
| 2026-05-04 22:06 | 25.04314 | -77.46339 | 12 ft | 7 kts | 314° |
| 2026-05-04 22:06 | 25.04372 | -77.46404 | 13 ft | 16 kts | 314° |
| 2026-05-04 22:07 | 25.04448 | -77.46490 | 12 ft | 15 kts | 315° |
| 2026-05-04 22:07 | 25.04519 | -77.46568 | 12 ft | 14 kts | 315° |
| 2026-05-04 22:07 | 25.04582 | -77.46638 | 12 ft | 12 kts | 314° |
| 2026-05-04 22:07 | 25.04637 | -77.46701 | 14 ft | 11 kts | 314° |
| 2026-05-04 22:08 | 25.04687 | -77.46754 | 12 ft | 9 kts | 316° |
| 2026-05-04 22:08 | 25.04734 | -77.46804 | 12 ft | 12 kts | 316° |
| 2026-05-04 22:08 | 25.04815 | -77.46894 | 14 ft | 18 kts | 313° |
| 2026-05-04 22:08 | 25.04874 | -77.46948 | 12 ft | 9 kts | 351° |
| 2026-05-04 22:09 | 25.04921 | -77.46917 | 12 ft | 8 kts | 55° |
| 2026-05-04 22:09 | 25.04942 | -77.46867 | 14 ft | 7 kts | 67° |
| 2026-05-04 22:09 | 25.04963 | -77.46816 | 12 ft | 8 kts | 65° |
| 2026-05-04 22:09 | 25.04974 | -77.46755 | 12 ft | 9 kts | 99° |
| 2026-05-04 22:10 | 25.04965 | -77.46722 | 14 ft | 3 kts | 111° |
| 2026-05-04 22:10 | 25.04958 | -77.46704 | 13 ft | 3 kts | 109° |
| 2026-05-04 22:10 | 25.04953 | -77.46688 | 12 ft | 1 kts | 108° |
| 2026-05-04 22:10 | 25.04952 | -77.46682 | 12 ft | 0 kts | 109° |